createdAt,value
2023-09-08T00:02:03.086Z,49.83
2023-09-08T00:04:29.527Z,49.36
2023-09-08T00:06:55.983Z,49.33
2023-09-08T00:09:22.365Z,49.47
2023-09-08T00:11:48.817Z,49.69
2023-09-08T00:14:15.175Z,49.38
2023-09-08T00:16:43.906Z,49.47
2023-09-08T00:19:11.109Z,49.34
2023-09-08T00:21:37.592Z,49.24
2023-09-08T00:24:05.048Z,49.14
2023-09-08T00:26:31.533Z,49.19
2023-09-08T00:28:57.904Z,49.15
2023-09-08T00:31:24.296Z,49.08
2023-09-08T00:33:50.739Z,49.18
2023-09-08T00:36:17.338Z,49.20
2023-09-08T00:38:43.767Z,49.15
2023-09-08T00:41:10.195Z,48.98
2023-09-08T00:43:36.644Z,49.23
2023-09-08T00:46:03.895Z,48.95
2023-09-08T00:48:30.556Z,48.98
2023-09-08T00:50:57.247Z,49.13
2023-09-08T00:53:23.630Z,49.17
2023-09-08T00:55:49.984Z,49.29
2023-09-08T00:58:16.410Z,49.18
2023-09-08T01:00:42.806Z,48.96
2023-09-08T01:03:09.251Z,49.20
2023-09-08T01:05:35.856Z,49.19
2023-09-08T01:08:02.310Z,49.21
2023-09-08T01:10:28.667Z,49.17
2023-09-08T01:12:55.042Z,49.33
2023-09-08T01:15:21.468Z,49.22
2023-09-08T01:17:47.946Z,49.21
2023-09-08T01:20:17.453Z,49.42
2023-09-08T01:23:03.654Z,49.39
2023-09-08T01:25:30.338Z,49.44
2023-09-08T01:27:57.240Z,49.56
2023-09-08T01:30:24.445Z,49.47
2023-09-08T01:32:51.528Z,49.59
2023-09-08T01:35:17.960Z,49.29
2023-09-08T01:37:47.660Z,49.41
2023-09-08T01:40:14.086Z,49.66
2023-09-08T01:42:40.465Z,49.47
2023-09-08T01:45:07.328Z,49.57
2023-09-08T01:47:33.724Z,49.49
2023-09-08T01:50:00.136Z,49.31
2023-09-08T01:52:26.588Z,49.38
2023-09-08T01:54:53.711Z,49.16
2023-09-08T01:57:20.099Z,49.19
2023-09-08T01:59:46.481Z,49.59
2023-09-08T02:02:12.853Z,49.51
2023-09-08T02:04:39.277Z,49.58
2023-09-08T02:07:06.028Z,49.50
2023-09-08T02:09:35.487Z,49.48
2023-09-08T02:12:02.087Z,49.34
2023-09-08T02:14:28.738Z,49.37
2023-09-08T02:16:55.606Z,49.40
2023-09-08T02:19:22.184Z,49.48
2023-09-08T02:21:48.607Z,49.71
2023-09-08T02:24:15.069Z,49.82
2023-09-08T02:26:41.515Z,49.91
2023-09-08T02:29:08.331Z,49.98
2023-09-08T02:31:34.796Z,49.62
2023-09-08T02:34:01.164Z,49.91
2023-09-08T02:36:27.688Z,49.98
2023-09-08T02:38:54.342Z,49.83
2023-09-08T02:41:20.728Z,50.14
2023-09-08T02:43:47.237Z,50.20
2023-09-08T02:46:13.808Z,50.30
2023-09-08T02:48:40.228Z,50.54
2023-09-08T02:51:07.643Z,50.37
2023-09-08T02:53:34.049Z,50.64
2023-09-08T02:56:00.508Z,50.63
2023-09-08T02:58:27.156Z,50.61
2023-09-08T03:00:53.713Z,50.88
2023-09-08T03:03:20.749Z,50.48
2023-09-08T03:05:47.397Z,50.86
2023-09-08T03:08:14.018Z,50.63
2023-09-08T03:10:41.181Z,50.87
2023-09-08T03:13:07.570Z,51.01
2023-09-08T03:15:35.268Z,50.98
2023-09-08T03:18:01.731Z,50.76
2023-09-08T03:20:29.516Z,51.24
2023-09-08T03:22:56.102Z,51.07
2023-09-08T03:25:22.472Z,51.33
2023-09-08T03:27:48.851Z,51.22
2023-09-08T03:30:15.228Z,51.27
2023-09-08T03:32:41.774Z,51.01
2023-09-08T03:35:08.625Z,51.05
2023-09-08T03:37:35.723Z,50.96
2023-09-08T03:40:02.184Z,51.05
2023-09-08T03:42:28.629Z,51.27
2023-09-08T03:44:54.992Z,51.14
2023-09-08T03:47:21.507Z,51.39
2023-09-08T03:49:48.152Z,51.34
2023-09-08T03:52:14.582Z,51.46
2023-09-08T03:54:40.958Z,51.19
2023-09-08T03:57:07.333Z,51.46
2023-09-08T03:59:33.760Z,51.19
2023-09-08T04:02:01.683Z,51.43
2023-09-08T04:04:28.108Z,51.25
2023-09-08T04:06:54.511Z,51.10
2023-09-08T04:09:20.911Z,51.34
2023-09-08T04:11:47.432Z,51.15
2023-09-08T04:14:13.890Z,51.38
2023-09-08T04:16:40.503Z,51.12
2023-09-08T04:19:06.880Z,51.39
2023-09-08T04:21:33.247Z,51.39
2023-09-08T04:23:59.934Z,51.44
2023-09-08T04:26:26.309Z,51.25
2023-09-08T04:28:52.765Z,51.47
2023-09-08T04:31:20.370Z,51.59
2023-09-08T04:33:46.760Z,51.41
2023-09-08T04:36:14.317Z,51.46
2023-09-08T04:38:42.765Z,51.54
2023-09-08T04:41:09.270Z,51.56
2023-09-08T04:43:35.916Z,51.67
2023-09-08T04:46:04.646Z,51.69
2023-09-08T04:48:31.415Z,51.83
2023-09-08T04:50:58.070Z,51.55
2023-09-08T04:53:24.497Z,51.79
2023-09-08T04:55:52.144Z,51.86
2023-09-08T04:58:18.568Z,51.64
2023-09-08T05:00:44.963Z,51.66
2023-09-08T05:03:11.461Z,51.76
2023-09-08T05:05:37.969Z,51.88
2023-09-08T05:08:05.054Z,51.65
2023-09-08T05:10:31.468Z,51.80
2023-09-08T05:12:57.846Z,51.97
2023-09-08T05:15:26.217Z,52.10
2023-09-08T05:17:52.749Z,51.78
2023-09-08T05:20:19.132Z,51.99
2023-09-08T05:22:45.694Z,52.18
2023-09-08T05:25:12.139Z,52.19
2023-09-08T05:27:38.539Z,51.90
2023-09-08T05:30:05.171Z,52.17
2023-09-08T05:32:31.660Z,52.11
2023-09-08T05:34:58.072Z,52.25
2023-09-08T05:37:24.448Z,52.21
2023-09-08T05:39:50.828Z,52.05
2023-09-08T05:42:17.375Z,52.20
2023-09-08T05:44:43.774Z,52.12
2023-09-08T05:47:10.291Z,52.34
2023-09-08T05:49:37.612Z,52.31
2023-09-08T05:52:04.425Z,52.04
2023-09-08T05:54:31.545Z,52.15
2023-09-08T05:56:57.983Z,52.31
2023-09-08T05:59:24.334Z,52.54
2023-09-08T06:01:50.799Z,52.45
2023-09-08T06:04:17.285Z,52.78
2023-09-08T06:06:43.739Z,52.81
2023-09-08T06:09:13.118Z,53.62
2023-09-08T06:11:39.525Z,53.76
2023-09-08T06:14:05.948Z,53.65
2023-09-08T06:16:32.412Z,53.17
2023-09-08T06:18:59.139Z,53.07
2023-09-08T06:21:25.831Z,53.72
2023-09-08T06:23:52.219Z,53.37
2023-09-08T06:26:18.666Z,54.43
2023-09-08T06:28:45.280Z,54.06
2023-09-08T06:31:11.691Z,54.17
2023-09-08T06:33:38.238Z,54.60
2023-09-08T06:36:04.703Z,53.79
2023-09-08T06:38:32.620Z,53.09
2023-09-08T06:40:59.348Z,52.88
2023-09-08T06:43:25.737Z,53.37
2023-09-08T06:45:52.156Z,53.52
2023-09-08T06:48:18.715Z,52.11
2023-09-08T06:50:45.185Z,52.61
2023-09-08T06:53:13.629Z,52.57
2023-09-08T06:55:42.110Z,52.65
2023-09-08T06:58:10.068Z,52.79
2023-09-08T07:00:36.509Z,52.19
2023-09-08T07:03:03.501Z,52.49
2023-09-08T07:05:30.333Z,52.55
2023-09-08T07:07:56.762Z,52.59
2023-09-08T07:10:23.235Z,52.36
2023-09-08T07:12:50.207Z,52.22
2023-09-08T07:15:16.587Z,51.78
2023-09-08T07:17:43.129Z,51.70
2023-09-08T07:20:09.893Z,52.09
2023-09-08T07:22:36.267Z,51.74
2023-09-08T07:25:02.710Z,52.02
2023-09-08T07:27:29.083Z,51.85
2023-09-08T07:29:55.511Z,52.53
2023-09-08T07:32:21.934Z,52.20
2023-09-08T07:34:53.352Z,52.81
2023-09-08T07:39:46.822Z,51.77
2023-09-08T07:42:13.177Z,52.08
2023-09-08T07:44:39.561Z,51.37
2023-09-08T07:47:06.125Z,51.62
2023-09-08T07:49:34.116Z,51.68
2023-09-08T07:52:00.517Z,51.67
2023-09-08T07:54:26.873Z,51.56
2023-09-08T07:56:53.295Z,51.48
2023-09-08T07:59:19.719Z,51.53
2023-09-08T08:01:46.182Z,51.48
2023-09-08T08:04:12.935Z,51.38
2023-09-08T08:06:39.436Z,51.72
2023-09-08T08:09:05.928Z,51.87
2023-09-08T08:11:32.400Z,51.54
2023-09-08T08:13:58.856Z,51.44
2023-09-08T08:16:25.577Z,51.73
2023-09-08T08:18:52.193Z,51.50
2023-09-08T08:21:18.681Z,51.48
2023-09-08T08:23:45.202Z,51.29
2023-09-08T08:26:11.727Z,51.47
2023-09-08T08:28:38.119Z,51.61
2023-09-08T08:31:05.362Z,51.46
2023-09-08T08:33:31.830Z,51.55
2023-09-08T08:35:58.276Z,51.61
2023-09-08T08:38:24.643Z,51.65
2023-09-08T08:40:51.445Z,51.35
2023-09-08T08:43:17.904Z,51.58
2023-09-08T08:45:44.550Z,51.17
2023-09-08T08:48:11.027Z,51.17
2023-09-08T08:50:38.425Z,51.31
2023-09-08T08:53:04.879Z,51.02
2023-09-08T08:55:31.334Z,51.17
2023-09-08T08:58:02.078Z,51.13
2023-09-08T09:00:28.490Z,50.90
2023-09-08T09:03:07.168Z,50.98
2023-09-08T09:05:40.141Z,51.09
2023-09-08T09:08:06.806Z,51.03
2023-09-08T09:10:33.167Z,51.34
2023-09-08T09:12:59.945Z,51.48
2023-09-08T09:15:33.667Z,51.08
2023-09-08T09:18:04.659Z,51.28
2023-09-08T09:20:31.077Z,50.99
2023-09-08T09:22:57.448Z,51.28
2023-09-08T09:25:24.559Z,51.11
2023-09-08T09:27:57.904Z,51.13
2023-09-08T09:30:24.359Z,51.25
2023-09-08T09:32:59.482Z,50.98
2023-09-08T09:35:41.192Z,51.18
2023-09-08T09:38:08.287Z,51.16
2023-09-08T09:40:34.653Z,51.13
2023-09-08T09:43:01.034Z,51.52
2023-09-08T09:45:27.452Z,51.46
2023-09-08T09:47:53.822Z,51.63
2023-09-08T09:50:34.150Z,51.29
2023-09-08T09:53:10.851Z,51.73
2023-09-08T09:55:37.647Z,51.44
2023-09-08T09:58:04.994Z,51.56
2023-09-08T10:00:31.594Z,51.80
2023-09-08T10:02:58.136Z,51.70
2023-09-08T10:05:24.826Z,52.13
2023-09-08T10:07:51.206Z,52.47
2023-09-08T10:10:17.935Z,52.02
2023-09-08T10:12:45.189Z,51.71
2023-09-08T10:15:11.756Z,52.01
2023-09-08T10:17:38.232Z,52.57
2023-09-08T10:20:12.758Z,52.22
2023-09-08T10:22:39.596Z,51.79
2023-09-08T10:25:06.919Z,52.69
2023-09-08T10:27:33.692Z,52.49
2023-09-08T10:30:01.935Z,52.54
2023-09-08T10:32:28.394Z,52.53
2023-09-08T10:34:55.228Z,52.58
2023-09-08T10:37:22.142Z,52.92
2023-09-08T10:39:48.623Z,52.45
2023-09-08T10:42:18.150Z,53.14
2023-09-08T10:44:44.746Z,52.47
2023-09-08T10:47:11.273Z,52.31
2023-09-08T10:49:37.862Z,51.79
2023-09-08T10:52:10.424Z,52.38
2023-09-08T10:54:43.013Z,51.94
2023-09-08T10:57:16.306Z,51.86
2023-09-08T10:59:46.048Z,52.12
2023-09-08T11:02:55.914Z,51.99
2023-09-08T11:05:22.683Z,51.46
2023-09-08T11:07:50.735Z,51.65
2023-09-08T11:10:17.446Z,51.50
2023-09-08T11:12:43.862Z,51.40
2023-09-08T11:15:10.410Z,51.37
2023-09-08T11:17:40.716Z,51.29
2023-09-08T11:20:12.112Z,51.55
2023-09-08T11:22:38.842Z,51.46
2023-09-08T11:25:05.846Z,51.33
2023-09-08T11:27:32.303Z,51.39
2023-09-08T11:29:58.727Z,51.25
2023-09-08T11:32:25.802Z,51.04
2023-09-08T11:34:52.177Z,50.67
2023-09-08T11:37:19.238Z,50.04
2023-09-08T11:39:46.171Z,50.78
2023-09-08T11:42:15.823Z,50.72
2023-09-08T11:44:42.519Z,50.33
2023-09-08T11:47:09.941Z,50.39
2023-09-08T11:49:40.017Z,49.98
2023-09-08T11:52:06.531Z,49.70
2023-09-08T11:54:32.946Z,50.18
2023-09-08T11:57:00.746Z,50.26
2023-09-08T11:59:27.967Z,50.18
2023-09-08T12:01:54.364Z,50.07
2023-09-08T12:04:21.730Z,50.32
2023-09-08T12:06:51.001Z,50.38
2023-09-08T12:09:17.594Z,50.08
2023-09-08T12:11:44.011Z,49.96
2023-09-08T12:14:13.543Z,49.97
2023-09-08T12:16:40.177Z,49.59
2023-09-08T12:19:07.318Z,49.75
2023-09-08T12:21:36.075Z,49.58
2023-09-08T12:24:02.473Z,50.31
2023-09-08T12:26:28.863Z,49.96
2023-09-08T12:28:55.247Z,50.02
2023-09-08T12:31:22.853Z,49.99
2023-09-08T12:33:49.322Z,49.87
2023-09-08T12:36:16.266Z,49.89
2023-09-08T12:38:42.764Z,50.11
2023-09-08T12:41:09.209Z,50.44
2023-09-08T12:43:36.366Z,49.92
2023-09-08T12:46:02.800Z,49.65
2023-09-08T12:48:29.197Z,49.89
2023-09-08T12:50:55.651Z,50.14
2023-09-08T12:53:24.258Z,49.86
2023-09-08T12:55:50.920Z,49.94
2023-09-08T12:58:17.566Z,50.35
2023-09-08T13:00:44.322Z,49.98
2023-09-08T13:03:10.868Z,50.13
2023-09-08T13:05:39.616Z,50.60
2023-09-08T13:08:06.285Z,50.48
2023-09-08T13:10:32.736Z,49.89
2023-09-08T13:12:59.191Z,49.88
2023-09-08T13:15:25.711Z,49.63
2023-09-08T13:17:52.535Z,49.17
2023-09-08T13:20:19.058Z,49.12
2023-09-08T13:22:45.548Z,49.46
2023-09-08T13:25:12.039Z,49.18
2023-09-08T13:27:38.860Z,49.71
2023-09-08T13:30:14.470Z,49.89
2023-09-08T13:32:41.028Z,49.55
2023-09-08T13:35:07.775Z,49.48
2023-09-08T13:37:35.498Z,49.18
2023-09-08T13:40:02.509Z,49.73
2023-09-08T13:42:28.998Z,50.01
2023-09-08T13:44:56.520Z,50.27
2023-09-08T13:47:23.381Z,50.32
2023-09-08T13:49:50.797Z,50.51
2023-09-08T13:52:19.358Z,50.28
2023-09-08T13:54:46.471Z,50.79
2023-09-08T13:57:14.657Z,50.26
2023-09-08T13:59:43.418Z,50.42
2023-09-08T14:02:28.966Z,50.38
2023-09-08T14:05:02.120Z,50.71
2023-09-08T14:07:36.686Z,50.50
2023-09-08T14:10:26.369Z,50.79
2023-09-08T14:12:54.617Z,50.74
2023-09-08T14:15:21.117Z,50.91
2023-09-08T14:17:47.543Z,50.73
2023-09-08T14:20:14.027Z,50.78
2023-09-08T14:22:40.878Z,50.75
2023-09-08T14:25:07.470Z,50.80
2023-09-08T14:27:34.796Z,51.12
2023-09-08T14:30:01.274Z,50.83
2023-09-08T14:32:27.745Z,50.98
2023-09-08T14:34:54.125Z,51.18
2023-09-08T14:37:20.482Z,50.87
2023-09-08T14:39:46.922Z,51.25
2023-09-08T14:42:14.266Z,51.29
2023-09-08T14:44:40.932Z,51.39
2023-09-08T14:47:07.296Z,51.60
2023-09-08T14:49:33.654Z,51.33
2023-09-08T14:52:00.006Z,51.65
2023-09-08T14:54:27.312Z,51.63
2023-09-08T14:56:53.682Z,51.89
2023-09-08T14:59:20.057Z,51.60
2023-09-08T15:01:46.597Z,51.93
2023-09-08T15:04:13.054Z,51.82
2023-09-08T15:06:39.477Z,51.43
2023-09-08T15:09:06.151Z,51.89
2023-09-08T15:11:32.667Z,51.87
2023-09-08T15:13:59.100Z,51.86
2023-09-08T15:16:25.588Z,51.83
2023-09-08T15:18:52.000Z,52.05
2023-09-08T15:21:19.864Z,51.83
2023-09-08T15:23:46.292Z,52.03
2023-09-08T15:26:12.728Z,52.07
2023-09-08T15:28:39.758Z,52.32
2023-09-08T15:31:06.194Z,52.39
2023-09-08T15:33:32.784Z,52.08
2023-09-08T15:35:59.328Z,52.49
2023-09-08T15:38:25.718Z,52.63
2023-09-08T15:41:17.880Z,52.63
2023-09-08T15:43:45.461Z,52.75
2023-09-08T15:46:11.864Z,52.57
2023-09-08T15:48:38.295Z,52.98
2023-09-08T15:51:05.199Z,53.12
2023-09-08T15:53:32.617Z,53.14
2023-09-08T15:55:58.983Z,53.28
2023-09-08T15:58:25.384Z,53.40
2023-09-08T16:00:52.138Z,53.35
2023-09-08T16:03:18.779Z,53.19
2023-09-08T16:05:45.360Z,53.52
2023-09-08T16:08:11.747Z,53.16
2023-09-08T16:10:38.116Z,53.33
2023-09-08T16:13:04.579Z,53.35
2023-09-08T16:15:31.143Z,53.26
2023-09-08T16:18:01.074Z,53.34
2023-09-08T16:20:27.677Z,53.35
2023-09-08T16:22:54.384Z,54.20
2023-09-08T16:25:20.805Z,54.27
2023-09-08T16:27:47.201Z,54.34
2023-09-08T16:30:13.638Z,54.52
2023-09-08T16:32:40.831Z,54.58
2023-09-08T16:35:07.576Z,54.58
2023-09-08T16:37:33.936Z,54.88
2023-09-08T16:40:00.297Z,54.85
2023-09-08T16:42:26.686Z,55.27
2023-09-08T16:44:53.128Z,54.99
2023-09-08T16:47:21.313Z,55.01
2023-09-08T16:49:48.049Z,54.95
2023-09-08T16:52:14.452Z,54.74
2023-09-08T16:54:40.847Z,54.57
2023-09-08T16:57:07.287Z,54.03
2023-09-08T16:59:33.695Z,54.15
2023-09-08T17:02:00.297Z,53.77
2023-09-08T17:04:26.802Z,54.28
2023-09-08T17:06:53.251Z,54.29
2023-09-08T17:09:19.833Z,54.19
2023-09-08T17:11:46.200Z,54.24
2023-09-08T17:14:13.881Z,54.51
2023-09-08T17:16:40.299Z,54.53
2023-09-08T17:19:07.030Z,54.72
2023-09-08T17:21:33.391Z,54.70
2023-09-08T17:23:59.794Z,55.05
2023-09-08T17:26:26.766Z,54.70
2023-09-08T17:28:53.822Z,54.59
2023-09-08T17:31:21.819Z,55.00
2023-09-08T17:33:54.016Z,54.59
2023-09-08T17:36:21.850Z,54.65
2023-09-08T17:38:49.186Z,54.31
2023-09-08T17:41:19.960Z,54.60
2023-09-08T17:43:47.968Z,54.20
2023-09-08T17:46:14.903Z,54.16
2023-09-08T17:48:46.080Z,54.06
2023-09-08T17:51:12.510Z,53.87
2023-09-08T17:53:39.200Z,54.01
2023-09-08T17:56:05.760Z,54.25
2023-09-08T17:58:32.235Z,54.11
2023-09-08T18:00:58.738Z,54.07
2023-09-08T18:03:25.352Z,53.81
2023-09-08T18:05:51.985Z,53.96
2023-09-08T18:08:18.790Z,54.05
2023-09-08T18:10:47.281Z,54.15
2023-09-08T18:13:13.788Z,54.71
2023-09-08T18:15:40.223Z,54.60
2023-09-08T18:18:06.820Z,54.62
2023-09-08T18:20:35.988Z,54.58
2023-09-08T18:23:02.352Z,54.54
2023-09-08T18:25:28.838Z,54.40
2023-09-08T18:27:55.274Z,54.21
2023-09-08T18:30:21.668Z,54.62
2023-09-08T18:32:48.079Z,54.80
2023-09-08T18:35:14.560Z,54.86
2023-09-08T18:37:41.063Z,54.54
2023-09-08T18:40:09.314Z,54.86
2023-09-08T18:42:37.611Z,54.85
2023-09-08T18:45:04.458Z,54.77
2023-09-08T18:47:30.905Z,54.54
2023-09-08T18:50:00.110Z,54.80
2023-09-08T18:52:26.552Z,54.50
2023-09-08T18:54:52.924Z,54.88
2023-09-08T18:57:19.273Z,54.97
2023-09-08T18:59:45.622Z,55.04
2023-09-08T19:02:12.056Z,54.89
2023-09-08T19:04:38.534Z,55.36
2023-09-08T19:07:05.073Z,55.25
2023-09-08T19:09:31.508Z,54.84
2023-09-08T19:11:57.879Z,54.80
2023-09-08T19:14:27.944Z,54.91
2023-09-08T19:16:54.742Z,54.63
2023-09-08T19:19:21.594Z,55.10
2023-09-08T19:21:48.145Z,55.15
2023-09-08T19:24:16.740Z,54.99
2023-09-08T19:26:43.133Z,55.09
2023-09-08T19:29:09.500Z,55.20
2023-09-08T19:31:35.877Z,54.93
2023-09-08T19:34:02.708Z,54.59
2023-09-08T19:36:29.143Z,54.61
2023-09-08T19:38:55.523Z,55.00
2023-09-08T19:41:24.968Z,55.48
2023-09-08T19:43:52.090Z,55.52
2023-09-08T19:46:18.508Z,55.53
2023-09-08T19:48:45.022Z,55.58
2023-09-08T19:51:11.615Z,55.29
2023-09-08T19:53:38.238Z,55.89
2023-09-08T19:56:04.952Z,56.32
2023-09-08T19:58:31.691Z,55.42
2023-09-08T20:01:07.299Z,55.94
2023-09-08T20:03:34.934Z,55.71
2023-09-08T20:06:04.810Z,55.96
2023-09-08T20:08:31.829Z,55.83
2023-09-08T20:10:58.451Z,56.25
2023-09-08T20:13:24.820Z,55.72
2023-09-08T20:16:07.815Z,55.79
2023-09-08T20:18:35.003Z,56.41
2023-09-08T20:21:05.690Z,56.51
2023-09-08T20:23:32.543Z,56.43
2023-09-08T20:25:59.164Z,56.53
2023-09-08T20:28:25.546Z,56.37
2023-09-08T20:31:05.018Z,56.25
2023-09-08T20:33:39.553Z,55.73
2023-09-08T20:36:06.048Z,55.81
2023-09-08T20:38:33.614Z,55.66
2023-09-08T20:41:00.118Z,55.69
2023-09-08T20:43:26.510Z,55.80
2023-09-08T20:45:56.102Z,55.80
2023-09-08T20:48:22.733Z,55.74
2023-09-08T20:50:49.447Z,56.24
2023-09-08T20:53:15.824Z,56.42
2023-09-08T20:55:42.265Z,56.21
2023-09-08T20:58:08.743Z,56.15
2023-09-08T21:00:35.519Z,56.35
2023-09-08T21:03:01.992Z,55.99
2023-09-08T21:05:28.433Z,55.78
2023-09-08T21:07:55.824Z,55.75
2023-09-08T21:10:22.348Z,55.95
2023-09-08T21:12:48.861Z,56.09
2023-09-08T21:15:15.425Z,55.88
2023-09-08T21:17:41.889Z,55.67
2023-09-08T21:20:08.721Z,55.84
2023-09-08T21:22:35.115Z,56.46
2023-09-08T21:25:01.516Z,56.07
2023-09-08T21:27:28.043Z,56.55
2023-09-08T21:29:54.748Z,56.45
2023-09-08T21:32:22.680Z,56.16
2023-09-08T21:34:49.042Z,56.68
2023-09-08T21:37:15.497Z,56.68
2023-09-08T21:39:41.856Z,57.04
2023-09-08T21:42:08.651Z,56.89
2023-09-08T21:44:35.127Z,56.91
2023-09-08T21:47:01.535Z,56.83
2023-09-08T21:49:28.214Z,57.11
2023-09-08T21:51:54.652Z,57.51
2023-09-08T21:54:21.032Z,57.52
2023-09-08T21:56:47.524Z,56.55
2023-09-08T21:59:13.891Z,56.18
2023-09-08T22:01:40.278Z,56.00
2023-09-08T22:04:06.827Z,56.19
2023-09-08T22:06:33.310Z,56.32
2023-09-08T22:08:59.997Z,55.92
2023-09-08T22:11:26.488Z,55.60
2023-09-08T22:13:53.038Z,55.35
2023-09-08T22:16:20.006Z,55.40
2023-09-08T22:18:46.550Z,55.49
2023-09-08T22:21:12.986Z,55.29
2023-09-08T22:23:39.803Z,55.25
2023-09-08T22:26:13.895Z,55.50
2023-09-08T22:28:41.066Z,55.38
2023-09-08T22:31:07.535Z,55.24
2023-09-08T22:33:34.222Z,55.09
2023-09-08T22:36:01.402Z,54.99
2023-09-08T22:38:27.990Z,55.19
2023-09-08T22:40:54.427Z,55.16
2023-09-08T22:43:20.864Z,54.78
2023-09-08T22:45:47.262Z,54.78
2023-09-08T22:48:13.750Z,55.06
2023-09-08T22:50:41.000Z,55.09
2023-09-08T22:53:09.715Z,54.61
2023-09-08T22:55:36.120Z,54.89
2023-09-08T22:58:02.650Z,54.73
2023-09-08T23:00:29.074Z,54.85
2023-09-08T23:02:55.693Z,54.42
2023-09-08T23:05:22.165Z,54.33
2023-09-08T23:07:48.653Z,54.69
2023-09-08T23:10:15.253Z,54.39
2023-09-08T23:12:41.794Z,54.69
2023-09-08T23:15:08.548Z,54.45
2023-09-08T23:17:35.210Z,54.40
2023-09-08T23:20:01.702Z,54.17
2023-09-08T23:22:28.064Z,54.01
2023-09-08T23:24:54.424Z,54.30
2023-09-08T23:27:20.986Z,53.95
2023-09-08T23:29:47.438Z,53.92
2023-09-08T23:32:13.850Z,54.10
2023-09-08T23:34:40.356Z,53.89
2023-09-08T23:37:06.830Z,53.95
2023-09-08T23:39:33.338Z,54.16
2023-09-08T23:42:00.916Z,53.88
2023-09-08T23:44:27.348Z,53.94
2023-09-08T23:46:53.909Z,54.04
2023-09-08T23:49:20.299Z,54.05
2023-09-08T23:51:46.818Z,53.99
2023-09-08T23:54:13.386Z,54.25
2023-09-08T23:56:39.778Z,54.27
2023-09-08T23:59:06.402Z,53.90
